This demonstration page uses our WeatherBlox Daily Observations layout. Learn more.

Left ArrowRight Arrow

36.17497, -115.13722

Hourly Observations for October 9, 2019

Temp ( °F °C ) Dew Point ( °F °C ) Humidity (%) Winds ( mph kmh ) Pressure ( in mb ) Visibility ( mi km ) Precip ( " mm )
12:53 am 00:53 Clear 66 18.9 25 -3.9 21 21 WNW 5 7 29.7 1006 10 16.0934 N/A
1:53 am 01:53 Clear 65 18.3 24 -4.4 21 21 NW 7 11 29.7 1006 10 16.0934 N/A
2:53 am 02:53 Clear 65 18.3 24 -4.4 21 21 N N/A 29.67 1005 10 16.0934 N/A
3:53 am 03:53 Clear 63 17.2 25 -3.9 24 24 NW 5 7 29.67 1005 10 16.0934 N/A
4:53 am 04:53 Clear 62 16.7 24 -4.4 23 23 NNW 10 17 29.68 1005 10 16.0934 N/A
5:53 am 05:53 Clear 64 17.8 20 -6.7 18 18 NNW 9 15 29.68 1005 10 16.0934 N/A
6:53 am 06:53 Sunny 64 17.8 21 -6.1 19 19 W 5 7 29.7 1006 10 16.0934 N/A
7:53 am 07:53 Sunny 66 18.9 22 -5.6 19 19 N N/A 29.7 1006 10 16.0934 N/A
8:53 am 08:53 Sunny 73 22.8 23 -5 15 15 NNW 5 7 29.7 1006 10 16.0934 N/A
9:53 am 09:53 Sunny 75 23.9 25 -3.9 15 15 N 3 6 29.71 1006 10 16.0934 N/A
10:53 am 10:53 Sunny 80 26.7 23 -5 12 12 NNE 6 9 29.7 1006 10 16.0934 N/A
11:53 am 11:53 Sunny 82 27.8 24 -4.4 12 12 N N/A 29.67 1005 10 16.0934 N/A
12:53 pm 12:53 Sunny 85 29.4 24 -4.4 11 11 N N/A 29.65 1004 10 16.0934 N/A
1:53 pm 13:53 Sunny 86 30 25 -3.9 11 11 E 5 7 29.61 1003 10 16.0934 N/A
2:53 pm 14:53 Sunny 88 31.1 25 -3.9 10 10 VRB 3 6 29.6 1002 10 16.0934 N/A
3:53 pm 15:53 Sunny 89 31.7 23 -5 9 9 NNW 7 11 29.59 1002 10 16.0934 N/A
4:53 pm 16:53 Sunny 89 31.7 22 -5.6 8 8 N N/A 29.58 1002 10 16.0934 N/A
5:53 pm 17:53 Sunny 87 30.6 20 -6.7 8 8 SW 5 7 29.59 1002 10 16.0934 N/A
6:53 pm 18:53 Clear 84 28.9 16 -8.9 8 8 WNW 7 11 29.6 1002 10 16.0934 N/A
7:53 pm 19:53 Clear 81 27.2 18 -7.8 9 9 NNW 8 13 29.62 1003 10 16.0934 N/A
8:53 pm 20:53 Clear 79 26.1 19 -7.2 10 10 WNW 25 41 29.64 1004 10 16.0934 N/A
9:53 pm 21:53 Clear 75 23.9 20 -6.7 12 12 NW 24 39 29.7 1006 10 16.0934 N/A
10:53 pm 22:53 Clear 71 21.7 17 -8.3 13 13 NNW 25 41 29.79 1009 10 16.0934 N/A
11:53 pm 23:53 Clear 68 20 8 -13.3 9 9 NW 25 41 29.83 1010 10 16.0934 N/A

Powered by AerisWeather